createdAt,value
2018-10-17T00:01:53.488Z,12.53
2018-10-17T00:04:21.740Z,12.58
2018-10-17T00:06:50.057Z,12.57
2018-10-17T00:09:18.240Z,12.69
2018-10-17T00:11:46.573Z,12.83
2018-10-17T00:14:15.445Z,12.92
2018-10-17T00:16:44.699Z,13.00
2018-10-17T00:19:12.959Z,13.08
2018-10-17T00:21:41.222Z,13.09
2018-10-17T00:24:09.370Z,13.11
2018-10-17T00:26:37.689Z,13.04
2018-10-17T00:29:05.872Z,12.96
2018-10-17T00:31:33.984Z,12.92
2018-10-17T00:34:02.134Z,12.91
2018-10-17T00:36:31.129Z,12.94
2018-10-17T00:38:59.210Z,12.69
2018-10-17T00:41:27.321Z,12.60
2018-10-17T00:43:56.265Z,12.65
2018-10-17T00:46:24.567Z,12.85
2018-10-17T00:48:52.708Z,12.97
2018-10-17T00:51:20.835Z,12.94
2018-10-17T00:53:49.001Z,12.88
2018-10-17T00:56:17.075Z,12.86
2018-10-17T00:59:02.531Z,12.88
2018-10-17T01:01:30.836Z,12.97
2018-10-17T01:03:58.942Z,13.01
2018-10-17T01:06:27.853Z,13.05
2018-10-17T01:08:55.955Z,13.09
2018-10-17T01:11:24.172Z,13.07
2018-10-17T01:13:52.463Z,13.01
2018-10-17T01:16:20.758Z,13.00
2018-10-17T01:18:50.051Z,13.00
2018-10-17T01:21:18.203Z,13.03
2018-10-17T01:23:46.568Z,13.02
2018-10-17T01:26:14.858Z,13.05
2018-10-17T01:28:42.944Z,13.04
2018-10-17T01:31:11.245Z,13.08
2018-10-17T01:33:39.592Z,13.17
2018-10-17T01:36:07.887Z,13.20
2018-10-17T01:38:36.048Z,13.23
2018-10-17T01:41:05.324Z,13.25
2018-10-17T01:43:34.177Z,13.27
2018-10-17T01:46:02.304Z,13.38
2018-10-17T01:48:30.666Z,13.42
2018-10-17T01:50:59.824Z,13.42
2018-10-17T01:53:28.425Z,13.37
2018-10-17T01:55:57.767Z,13.36
2018-10-17T01:58:27.230Z,13.37
2018-10-17T02:00:55.538Z,13.37
2018-10-17T02:03:23.748Z,13.34
2018-10-17T02:05:51.861Z,13.39
2018-10-17T02:08:20.736Z,13.34
2018-10-17T02:10:48.964Z,13.28
2018-10-17T02:13:19.794Z,13.18
2018-10-17T02:15:49.088Z,13.04
2018-10-17T02:18:17.702Z,12.97
2018-10-17T02:20:46.011Z,13.00
2018-10-17T02:23:14.239Z,13.04
2018-10-17T02:25:43.153Z,13.00
2018-10-17T02:28:11.298Z,12.90
2018-10-17T02:30:39.469Z,12.87
2018-10-17T02:33:08.634Z,12.79
2018-10-17T02:35:36.777Z,12.59
2018-10-17T02:38:05.725Z,12.72
2018-10-17T02:40:33.909Z,12.73
2018-10-17T02:43:02.200Z,12.80
2018-10-17T02:45:30.867Z,12.89
2018-10-17T02:47:59.775Z,12.89
2018-10-17T02:50:27.910Z,12.80
2018-10-17T02:52:56.139Z,12.86
2018-10-17T02:55:24.210Z,12.85
2018-10-17T02:57:52.343Z,12.79
2018-10-17T03:00:20.449Z,12.74
2018-10-17T03:02:48.811Z,12.76
2018-10-17T03:05:17.139Z,12.80
2018-10-17T03:07:45.487Z,12.84
2018-10-17T03:10:13.714Z,12.88
2018-10-17T03:12:42.076Z,12.86
2018-10-17T03:15:10.258Z,12.88
2018-10-17T03:17:38.603Z,12.96
2018-10-17T03:20:08.544Z,12.98
2018-10-17T03:22:36.876Z,12.93
2018-10-17T03:25:06.002Z,12.97
2018-10-17T03:27:34.222Z,12.99
2018-10-17T03:30:03.667Z,13.01
2018-10-17T03:32:31.810Z,12.94
2018-10-17T03:35:00.262Z,12.92
2018-10-17T03:37:29.432Z,12.96
2018-10-17T03:39:57.781Z,12.94
2018-10-17T03:42:26.151Z,12.82
2018-10-17T03:44:55.135Z,12.89
2018-10-17T03:47:23.267Z,12.75
2018-10-17T03:49:51.470Z,12.77
2018-10-17T03:52:19.576Z,12.63
2018-10-17T03:54:47.871Z,12.48
2018-10-17T03:57:15.964Z,12.49
2018-10-17T03:59:45.054Z,12.48
2018-10-17T04:02:13.263Z,12.49
2018-10-17T04:04:41.589Z,12.49
2018-10-17T04:07:10.028Z,12.52
2018-10-17T04:09:38.157Z,12.50
2018-10-17T04:12:06.405Z,12.44
2018-10-17T04:14:34.732Z,12.37
2018-10-17T04:17:03.075Z,12.54
2018-10-17T04:19:32.526Z,12.55
2018-10-17T04:22:01.329Z,12.49
2018-10-17T04:24:29.721Z,12.31
2018-10-17T04:26:57.945Z,12.38
2018-10-17T04:29:26.195Z,12.44
2018-10-17T04:31:55.423Z,12.38
2018-10-17T04:34:23.601Z,12.32
2018-10-17T04:36:51.802Z,12.37
2018-10-17T04:39:20.087Z,12.36
2018-10-17T04:41:48.258Z,12.28
2018-10-17T04:44:16.457Z,12.28
2018-10-17T04:46:45.731Z,12.40
2018-10-17T04:49:13.948Z,12.25
2018-10-17T04:51:42.241Z,12.08
2018-10-17T04:54:10.565Z,12.03
2018-10-17T04:56:38.882Z,12.09
2018-10-17T04:59:07.717Z,12.03
2018-10-17T05:01:35.831Z,11.97
2018-10-17T05:04:04.482Z,12.01
2018-10-17T05:06:33.082Z,12.02
2018-10-17T05:09:01.426Z,12.00
2018-10-17T05:11:29.735Z,12.08
2018-10-17T05:13:58.098Z,12.04
2018-10-17T05:16:26.785Z,12.04
2018-10-17T05:18:54.967Z,11.96
2018-10-17T05:21:23.775Z,12.01
2018-10-17T05:23:51.954Z,12.04
2018-10-17T05:26:20.106Z,12.15
2018-10-17T05:28:48.232Z,12.07
2018-10-17T05:31:16.419Z,12.06
2018-10-17T05:33:44.628Z,12.06
2018-10-17T05:36:12.888Z,12.02
2018-10-17T05:38:41.573Z,11.96
2018-10-17T05:41:09.845Z,12.04
2018-10-17T05:43:38.730Z,12.03
2018-10-17T05:46:07.604Z,12.13
2018-10-17T05:48:35.708Z,12.15
2018-10-17T05:51:04.845Z,12.11
2018-10-17T05:53:33.175Z,12.15
2018-10-17T05:56:01.347Z,12.24
2018-10-17T05:58:29.549Z,12.23
2018-10-17T06:00:58.164Z,12.28
2018-10-17T06:03:26.387Z,12.19
2018-10-17T06:05:55.115Z,12.24
2018-10-17T06:08:23.261Z,12.40
2018-10-17T06:10:51.427Z,12.45
2018-10-17T06:13:19.597Z,12.54
2018-10-17T06:15:47.732Z,12.64
2018-10-17T06:18:16.003Z,12.81
2018-10-17T06:20:44.138Z,12.90
2018-10-17T06:26:10.046Z,13.17
2018-10-17T06:28:39.055Z,13.26
2018-10-17T06:31:07.285Z,13.33
2018-10-17T06:33:36.017Z,13.33
2018-10-17T06:36:04.243Z,13.33
2018-10-17T06:38:32.435Z,13.36
2018-10-17T06:41:00.632Z,13.39
2018-10-17T06:43:29.557Z,13.36
2018-10-17T06:45:57.675Z,13.42
2018-10-17T06:48:26.987Z,13.37
2018-10-17T06:50:55.120Z,13.42
2018-10-17T06:53:23.317Z,13.43
2018-10-17T06:55:51.449Z,13.47
2018-10-17T06:58:20.324Z,13.53
2018-10-17T07:00:48.492Z,13.46
2018-10-17T07:03:16.737Z,13.63
2018-10-17T07:05:45.496Z,13.70
2018-10-17T07:08:13.651Z,13.83
2018-10-17T07:10:41.822Z,13.98
2018-10-17T07:13:10.104Z,14.06
2018-10-17T07:15:38.416Z,14.32
2018-10-17T07:18:06.646Z,14.45
2018-10-17T07:20:34.969Z,14.73
2018-10-17T07:23:04.279Z,15.02
2018-10-17T07:25:33.212Z,15.04
2018-10-17T07:28:01.460Z,15.04
2018-10-17T07:30:30.863Z,15.20
2018-10-17T07:32:59.262Z,15.53
2018-10-17T07:35:28.988Z,15.84
2018-10-17T07:37:57.289Z,15.90
2018-10-17T07:40:25.646Z,16.00
2018-10-17T07:42:53.851Z,16.08
2018-10-17T07:45:22.070Z,16.19
2018-10-17T07:47:50.568Z,16.37
2018-10-17T07:50:19.427Z,16.50
2018-10-17T07:52:48.182Z,16.70
2018-10-17T07:55:17.168Z,16.78
2018-10-17T07:57:45.537Z,16.92
2018-10-17T08:00:14.320Z,17.08
2018-10-17T08:02:43.338Z,17.30
2018-10-17T08:05:11.482Z,17.56
2018-10-17T08:07:39.959Z,17.76
2018-10-17T08:10:09.530Z,17.66
2018-10-17T08:12:38.120Z,17.90
2018-10-17T08:15:08.191Z,18.07
2018-10-17T08:17:36.649Z,18.26
2018-10-17T08:20:06.683Z,18.16
2018-10-17T08:22:35.045Z,18.17
2018-10-17T08:25:03.423Z,18.37
2018-10-17T08:27:31.595Z,18.78
2018-10-17T08:29:59.786Z,18.91
2018-10-17T08:32:27.969Z,19.00
2018-10-17T08:34:56.153Z,19.18
2018-10-17T08:37:25.045Z,19.04
2018-10-17T08:39:52.900Z,18.98
2018-10-17T08:42:21.077Z,19.01
2018-10-17T08:44:49.239Z,19.37
2018-10-17T08:47:17.424Z,19.66
2018-10-17T08:49:45.624Z,20.02
2018-10-17T08:52:13.808Z,20.12
2018-10-17T08:54:42.100Z,20.34
2018-10-17T08:57:10.260Z,20.79
2018-10-17T08:59:38.519Z,21.32
2018-10-17T09:02:07.638Z,21.50
2018-10-17T09:04:36.029Z,22.28
2018-10-17T09:07:10.879Z,22.67
2018-10-17T09:09:39.138Z,22.42
2018-10-17T09:12:08.460Z,22.32
2018-10-17T09:14:40.068Z,22.05
2018-10-17T09:17:08.224Z,21.82
2018-10-17T09:19:36.611Z,21.93
2018-10-17T09:22:05.955Z,21.96
2018-10-17T09:24:33.760Z,22.23
2018-10-17T09:27:02.144Z,22.74
2018-10-17T09:29:30.868Z,22.88
2018-10-17T09:32:00.053Z,22.79
2018-10-17T09:34:28.192Z,23.39
2018-10-17T09:36:56.333Z,26.81
2018-10-17T09:39:24.455Z,29.51
2018-10-17T09:41:52.643Z,33.02
2018-10-17T09:44:21.571Z,35.33
2018-10-17T09:46:49.734Z,36.03
2018-10-17T09:49:17.936Z,36.48
2018-10-17T09:51:46.075Z,37.77
2018-10-17T09:54:14.269Z,38.82
2018-10-17T09:56:43.200Z,39.68
2018-10-17T09:59:11.479Z,40.17
2018-10-17T10:01:45.447Z,40.57
2018-10-17T10:04:13.767Z,40.54
2018-10-17T10:06:41.923Z,41.37
2018-10-17T10:09:10.594Z,41.34
2018-10-17T10:11:39.182Z,41.83
2018-10-17T10:14:08.347Z,42.82
2018-10-17T10:16:36.496Z,43.17
2018-10-17T10:19:05.629Z,43.48
2018-10-17T10:21:33.837Z,42.49
2018-10-17T10:24:02.481Z,43.74
2018-10-17T10:26:31.995Z,44.46
2018-10-17T10:29:00.147Z,44.49
2018-10-17T10:31:28.287Z,43.93
2018-10-17T10:33:57.374Z,44.19
2018-10-17T10:36:25.580Z,43.58
2018-10-17T10:38:54.417Z,42.74
2018-10-17T10:41:22.898Z,38.20
2018-10-17T10:43:51.837Z,35.53
2018-10-17T10:46:19.993Z,35.88
2018-10-17T10:48:48.179Z,35.99
2018-10-17T10:51:16.483Z,38.19
2018-10-17T10:53:44.551Z,39.41
2018-10-17T10:56:12.824Z,41.14
2018-10-17T10:58:41.164Z,41.45
2018-10-17T11:01:09.272Z,41.05
2018-10-17T11:03:37.412Z,43.06
2018-10-17T11:06:05.709Z,44.04
2018-10-17T11:08:33.947Z,44.73
2018-10-17T11:11:02.148Z,44.91
2018-10-17T11:13:30.285Z,45.23
2018-10-17T11:15:58.463Z,45.41
2018-10-17T11:18:27.503Z,45.92
2018-10-17T11:20:55.755Z,45.58
2018-10-17T11:23:23.869Z,45.69
2018-10-17T11:25:52.099Z,45.81
2018-10-17T11:28:20.357Z,45.88
2018-10-17T11:30:48.626Z,45.60
2018-10-17T11:33:16.852Z,44.88
2018-10-17T11:35:45.150Z,45.34
2018-10-17T11:38:13.326Z,45.42
2018-10-17T11:40:41.716Z,45.21
2018-10-17T11:43:09.765Z,45.39
2018-10-17T11:45:38.583Z,45.82
2018-10-17T11:48:06.759Z,46.44
2018-10-17T11:50:35.015Z,46.44
2018-10-17T11:53:03.276Z,45.84
2018-10-17T11:55:31.441Z,45.86
2018-10-17T11:57:59.621Z,46.15
2018-10-17T12:00:27.852Z,45.86
2018-10-17T12:02:56.305Z,44.68
2018-10-17T12:05:25.398Z,41.73
2018-10-17T12:07:53.224Z,40.90
2018-10-17T12:10:21.374Z,38.35
2018-10-17T12:12:50.227Z,38.22
2018-10-17T12:15:18.445Z,38.49
2018-10-17T12:17:47.499Z,39.16
2018-10-17T12:20:15.639Z,39.11
2018-10-17T12:22:50.487Z,37.49
2018-10-17T12:25:18.699Z,39.42
2018-10-17T12:27:46.942Z,40.25
2018-10-17T12:30:15.423Z,39.72
2018-10-17T12:32:43.560Z,39.79
2018-10-17T12:35:18.681Z,39.64
2018-10-17T12:37:47.087Z,38.70
2018-10-17T12:40:16.363Z,38.27
2018-10-17T12:42:44.643Z,40.09
2018-10-17T12:45:12.827Z,40.61
2018-10-17T12:47:41.085Z,40.04
2018-10-17T12:50:09.847Z,38.60
2018-10-17T12:52:38.077Z,37.65
2018-10-17T12:55:07.123Z,36.23
2018-10-17T12:57:35.239Z,34.49
2018-10-17T13:00:03.823Z,35.26
2018-10-17T13:02:32.027Z,38.55
2018-10-17T13:05:00.271Z,40.54
2018-10-17T13:07:28.601Z,41.75
2018-10-17T13:09:56.805Z,42.08
2018-10-17T13:12:25.407Z,41.63
2018-10-17T13:14:53.696Z,41.72
2018-10-17T13:17:21.867Z,41.99
2018-10-17T13:19:50.030Z,42.44
2018-10-17T13:22:18.346Z,41.97
2018-10-17T13:24:47.669Z,39.99
2018-10-17T13:27:15.701Z,39.98
2018-10-17T13:29:44.001Z,40.07
2018-10-17T13:32:12.167Z,39.96
2018-10-17T13:34:40.387Z,40.13
2018-10-17T13:37:09.758Z,39.07
2018-10-17T13:39:38.054Z,38.18
2018-10-17T13:42:06.255Z,38.05
2018-10-17T13:44:34.442Z,38.68
2018-10-17T13:47:02.754Z,39.18
2018-10-17T13:49:30.937Z,38.71
2018-10-17T13:51:59.130Z,38.82
2018-10-17T13:54:27.346Z,38.54
2018-10-17T13:56:55.548Z,38.83
2018-10-17T13:59:23.946Z,38.73
2018-10-17T14:01:52.000Z,38.63
2018-10-17T14:04:20.138Z,38.47
2018-10-17T14:06:49.380Z,38.46
2018-10-17T14:09:17.933Z,38.26
2018-10-17T14:11:46.085Z,38.18
2018-10-17T14:14:14.302Z,37.82
2018-10-17T14:16:42.487Z,37.43
2018-10-17T14:19:10.721Z,37.18
2018-10-17T14:21:39.082Z,36.79
2018-10-17T14:24:07.623Z,36.36
2018-10-17T14:26:35.747Z,35.86
2018-10-17T14:29:03.993Z,35.51
2018-10-17T14:31:32.252Z,35.33
2018-10-17T14:34:00.546Z,34.62
2018-10-17T14:36:29.029Z,34.50
2018-10-17T14:38:57.248Z,34.34
2018-10-17T14:41:25.441Z,34.03
2018-10-17T14:43:53.702Z,33.76
2018-10-17T14:46:21.863Z,33.26
2018-10-17T14:48:50.081Z,32.78
2018-10-17T14:51:18.409Z,32.26
2018-10-17T14:53:46.589Z,31.10
2018-10-17T14:56:14.850Z,30.43
2018-10-17T14:58:43.074Z,29.38
2018-10-17T15:01:11.267Z,29.16
2018-10-17T15:03:39.579Z,28.50
2018-10-17T15:06:07.909Z,27.96
2018-10-17T15:08:36.066Z,27.37
2018-10-17T15:11:04.553Z,26.67
2018-10-17T15:13:33.351Z,25.93
2018-10-17T15:16:01.611Z,25.29
2018-10-17T15:18:29.780Z,24.80
2018-10-17T15:20:58.368Z,24.36
2018-10-17T15:23:27.348Z,23.95
2018-10-17T15:25:55.632Z,23.63
2018-10-17T15:28:23.882Z,23.15
2018-10-17T15:30:52.076Z,22.71
2018-10-17T15:33:20.942Z,22.33
2018-10-17T15:35:50.284Z,22.13
2018-10-17T15:38:18.510Z,21.94
2018-10-17T15:40:47.665Z,21.61
2018-10-17T15:43:17.503Z,21.40
2018-10-17T15:45:45.648Z,21.19
2018-10-17T15:48:14.165Z,20.99
2018-10-17T15:50:42.319Z,20.89
2018-10-17T15:53:11.655Z,20.78
2018-10-17T15:55:40.671Z,20.66
2018-10-17T15:58:09.733Z,20.54
2018-10-17T16:00:37.880Z,20.43
2018-10-17T16:03:06.102Z,20.31
2018-10-17T16:05:34.298Z,20.13
2018-10-17T16:08:02.628Z,19.99
2018-10-17T16:10:31.445Z,19.86
2018-10-17T16:12:59.635Z,19.72
2018-10-17T16:15:27.813Z,19.55
2018-10-17T16:17:55.982Z,19.46
2018-10-17T16:20:24.187Z,19.33
2018-10-17T16:22:53.213Z,19.23
2018-10-17T16:25:21.594Z,19.13
2018-10-17T16:27:51.167Z,19.01
2018-10-17T16:30:19.546Z,18.90
2018-10-17T16:32:47.886Z,18.79
2018-10-17T16:35:16.791Z,18.70
2018-10-17T16:37:45.682Z,18.60
2018-10-17T16:40:13.929Z,18.52
2018-10-17T16:42:42.094Z,18.46
2018-10-17T16:45:11.094Z,18.36
2018-10-17T16:47:40.593Z,18.34
2018-10-17T16:50:09.644Z,18.16
2018-10-17T16:52:37.626Z,18.08
2018-10-17T16:55:07.383Z,18.05
2018-10-17T16:57:35.986Z,17.97
2018-10-17T17:00:06.270Z,17.84
2018-10-17T17:02:35.145Z,17.83
2018-10-17T17:05:03.454Z,17.72
2018-10-17T17:07:31.718Z,17.67
2018-10-17T17:10:00.378Z,17.62
2018-10-17T17:12:29.274Z,17.59
2018-10-17T17:14:57.730Z,17.48
2018-10-17T17:17:26.548Z,17.46
2018-10-17T17:19:54.710Z,17.33
2018-10-17T17:22:22.896Z,17.23
2018-10-17T17:24:51.074Z,17.24
2018-10-17T17:27:19.856Z,17.23
2018-10-17T17:29:49.285Z,17.13
2018-10-17T17:32:18.111Z,17.08
2018-10-17T17:34:46.630Z,17.03
2018-10-17T17:37:14.810Z,16.98
2018-10-17T17:39:42.978Z,16.90
2018-10-17T17:42:12.375Z,16.94
2018-10-17T17:44:40.605Z,16.87
2018-10-17T17:47:08.836Z,16.80
2018-10-17T17:49:37.138Z,16.79
2018-10-17T17:52:05.675Z,16.72
2018-10-17T17:54:33.848Z,16.70
2018-10-17T17:57:02.327Z,16.66
2018-10-17T17:59:30.539Z,16.52
2018-10-17T18:01:59.679Z,16.41
2018-10-17T18:04:28.143Z,16.40
2018-10-17T18:06:56.586Z,16.39
2018-10-17T18:09:24.965Z,16.38
2018-10-17T18:11:53.155Z,16.28
2018-10-17T18:14:21.433Z,16.26
2018-10-17T18:16:49.883Z,16.32
2018-10-17T18:19:18.799Z,16.18
2018-10-17T18:21:47.084Z,16.02
2018-10-17T18:24:16.174Z,15.96
2018-10-17T18:26:51.115Z,15.97
2018-10-17T18:29:19.327Z,15.91
2018-10-17T18:31:47.694Z,15.86
2018-10-17T18:34:16.990Z,15.93
2018-10-17T18:36:46.020Z,15.94
2018-10-17T18:39:14.208Z,15.79
2018-10-17T18:41:42.963Z,15.82
2018-10-17T18:44:11.227Z,15.74
2018-10-17T18:46:39.442Z,15.69
2018-10-17T18:49:07.794Z,15.66
2018-10-17T18:51:35.950Z,15.54
2018-10-17T18:54:05.081Z,15.56
2018-10-17T18:56:34.444Z,15.57
2018-10-17T18:59:02.711Z,15.57
2018-10-17T19:01:31.287Z,15.51
2018-10-17T19:03:59.523Z,15.39
2018-10-17T19:06:27.841Z,15.32
2018-10-17T19:08:56.159Z,15.38
2018-10-17T19:11:24.418Z,15.24
2018-10-17T19:13:53.174Z,15.21
2018-10-17T19:16:21.804Z,15.25
2018-10-17T19:18:50.042Z,15.26
2018-10-17T19:21:18.436Z,15.22
2018-10-17T19:23:47.760Z,15.14
2018-10-17T19:26:16.026Z,15.04
2018-10-17T19:28:44.210Z,14.99
2018-10-17T19:31:12.464Z,15.03
2018-10-17T19:33:40.689Z,15.09
2018-10-17T19:36:08.977Z,14.90
2018-10-17T19:38:37.640Z,14.93
2018-10-17T19:41:05.906Z,14.95
2018-10-17T19:43:34.093Z,14.85
2018-10-17T19:46:02.292Z,14.73
2018-10-17T19:48:30.431Z,14.66
2018-10-17T19:50:58.693Z,14.63
2018-10-17T19:53:26.766Z,14.63
2018-10-17T19:55:55.078Z,14.64
2018-10-17T19:58:23.257Z,14.67
2018-10-17T20:00:51.513Z,14.63
2018-10-17T20:03:19.728Z,14.61
2018-10-17T20:05:48.851Z,14.69
2018-10-17T20:08:17.028Z,14.75
2018-10-17T20:10:45.780Z,14.75
2018-10-17T20:13:13.986Z,14.72
2018-10-17T20:15:42.273Z,14.65
2018-10-17T20:18:10.501Z,14.63
2018-10-17T20:20:38.698Z,14.44
2018-10-17T20:23:06.956Z,14.41
2018-10-17T20:25:35.181Z,14.45
2018-10-17T20:28:03.515Z,14.26
2018-10-17T20:30:31.695Z,14.10
2018-10-17T20:32:59.866Z,14.19
2018-10-17T20:35:29.051Z,14.30
2018-10-17T20:37:57.310Z,14.30
2018-10-17T20:40:25.523Z,14.32
2018-10-17T20:42:53.727Z,14.27
2018-10-17T20:45:22.182Z,14.28
2018-10-17T20:47:51.160Z,14.16
2018-10-17T20:50:20.087Z,13.93
2018-10-17T20:52:48.328Z,13.90
2018-10-17T20:55:16.569Z,13.92
2018-10-17T20:57:44.817Z,13.87
2018-10-17T21:00:12.983Z,13.82
2018-10-17T21:02:41.135Z,13.81
2018-10-17T21:05:09.317Z,13.89
2018-10-17T21:07:37.485Z,13.94
2018-10-17T21:10:06.748Z,13.84
2018-10-17T21:12:34.921Z,13.78
2018-10-17T21:15:03.223Z,13.72
2018-10-17T21:17:31.386Z,13.66
2018-10-17T21:19:59.558Z,13.69
2018-10-17T21:22:27.727Z,13.69
2018-10-17T21:24:55.915Z,13.53
2018-10-17T21:27:24.090Z,13.76
2018-10-17T21:29:52.282Z,13.74
2018-10-17T21:32:20.543Z,13.80
2018-10-17T21:34:48.662Z,13.63
2018-10-17T21:37:16.864Z,13.52
2018-10-17T21:39:45.003Z,13.63
2018-10-17T21:42:13.130Z,13.65
2018-10-17T21:44:41.256Z,13.47
2018-10-17T21:47:09.465Z,13.51
2018-10-17T21:49:37.768Z,13.44
2018-10-17T21:52:05.928Z,13.45
2018-10-17T21:54:34.157Z,13.51
2018-10-17T21:57:02.313Z,13.50
2018-10-17T21:59:30.496Z,13.33
2018-10-17T22:01:58.692Z,13.30
2018-10-17T22:04:27.292Z,13.38
2018-10-17T22:06:56.056Z,13.48
2018-10-17T22:09:24.384Z,13.43
2018-10-17T22:11:52.524Z,13.37
2018-10-17T22:14:20.745Z,13.43
2018-10-17T22:16:55.627Z,13.38
2018-10-17T22:19:24.154Z,13.35
2018-10-17T22:21:53.052Z,13.26
2018-10-17T22:24:21.414Z,13.14
2018-10-17T22:26:49.613Z,13.08
2018-10-17T22:29:17.778Z,13.18
2018-10-17T22:31:46.143Z,13.22
2018-10-17T22:34:15.141Z,13.17
2018-10-17T22:36:43.572Z,13.09
2018-10-17T22:39:13.945Z,13.12
2018-10-17T22:41:42.895Z,13.15
2018-10-17T22:44:11.247Z,13.07
2018-10-17T22:46:39.621Z,13.10
2018-10-17T22:49:08.948Z,13.07
2018-10-17T22:51:37.822Z,13.19
2018-10-17T22:54:06.706Z,13.14
2018-10-17T22:56:34.969Z,13.16
2018-10-17T22:59:04.257Z,13.12
2018-10-17T23:01:33.009Z,13.17
2018-10-17T23:04:01.415Z,13.14
2018-10-17T23:06:30.435Z,13.09
2018-10-17T23:08:58.843Z,13.02
2018-10-17T23:11:27.144Z,12.98
2018-10-17T23:13:56.054Z,12.94
2018-10-17T23:16:24.354Z,12.89
2018-10-17T23:18:53.197Z,12.82
2018-10-17T23:21:22.078Z,12.81
2018-10-17T23:23:50.310Z,12.82
2018-10-17T23:26:18.642Z,12.91
2018-10-17T23:28:47.073Z,12.91
2018-10-17T23:31:15.218Z,12.93
2018-10-17T23:33:43.402Z,12.89
2018-10-17T23:36:11.746Z,12.88
2018-10-17T23:38:39.880Z,12.94
2018-10-17T23:41:08.051Z,12.89
2018-10-17T23:43:36.242Z,12.84
2018-10-17T23:46:05.214Z,12.75
2018-10-17T23:48:33.650Z,12.78
2018-10-17T23:51:01.827Z,12.78
2018-10-17T23:53:29.980Z,12.80
2018-10-17T23:55:58.372Z,12.74
2018-10-17T23:58:26.581Z,12.66
